createdAt,value
2023-01-14T00:00:09.333Z,856.02
2023-01-14T00:01:09.155Z,855.95
2023-01-14T00:02:09.128Z,855.91
2023-01-14T00:03:09.111Z,855.91
2023-01-14T00:04:09.107Z,855.91
2023-01-14T00:05:09.093Z,855.88
2023-01-14T00:06:09.137Z,855.85
2023-01-14T00:07:09.067Z,855.90
2023-01-14T00:08:09.060Z,855.89
2023-01-14T00:09:09.050Z,855.89
2023-01-14T00:10:09.042Z,855.91
2023-01-14T00:11:09.034Z,855.89
2023-01-14T00:12:09.082Z,855.94
2023-01-14T00:13:09.007Z,855.87
2023-01-14T00:14:09.021Z,855.92
2023-01-14T00:15:08.992Z,855.93
2023-01-14T00:16:09.022Z,856.00
2023-01-14T00:17:08.980Z,856.01
2023-01-14T00:18:08.995Z,855.96
2023-01-14T00:19:08.952Z,855.97
2023-01-14T00:20:08.943Z,856.02
2023-01-14T00:21:08.924Z,856.04
2023-01-14T00:22:08.929Z,856.05
2023-01-14T00:23:08.909Z,856.11
2023-01-14T00:24:08.948Z,856.08
2023-01-14T00:25:08.890Z,856.02
2023-01-14T00:26:08.877Z,856.09
2023-01-14T00:27:08.871Z,856.00
2023-01-14T00:28:08.866Z,855.95
2023-01-14T00:29:08.856Z,855.96
2023-01-14T00:30:08.900Z,855.93
2023-01-14T00:31:08.856Z,856.00
2023-01-14T00:32:08.813Z,855.95
2023-01-14T00:33:08.804Z,855.97
2023-01-14T00:34:08.796Z,855.96
2023-01-14T00:35:08.777Z,855.95
2023-01-14T00:36:08.832Z,855.94
2023-01-14T00:37:08.767Z,855.99
2023-01-14T00:38:08.749Z,855.96
2023-01-14T00:39:08.737Z,855.94
2023-01-14T00:40:08.728Z,855.89
2023-01-14T00:41:08.716Z,855.94
2023-01-14T00:42:08.776Z,855.87
2023-01-14T00:43:08.698Z,855.90
2023-01-14T00:44:08.692Z,855.91
2023-01-14T00:45:08.674Z,855.92
2023-01-14T00:46:08.723Z,855.97
2023-01-14T00:47:08.664Z,855.97
2023-01-14T00:48:08.697Z,856.02
2023-01-14T00:49:08.644Z,856.05
2023-01-14T00:50:08.627Z,856.08
2023-01-14T00:51:08.613Z,856.13
2023-01-14T00:52:08.603Z,856.12
2023-01-14T00:53:08.604Z,856.16
2023-01-14T00:54:08.623Z,856.16
2023-01-14T00:55:08.575Z,856.14
2023-01-14T00:56:08.572Z,856.15
2023-01-14T00:57:08.570Z,856.10
2023-01-14T00:58:08.543Z,856.11
2023-01-14T00:59:08.542Z,856.09
2023-01-14T01:00:08.567Z,856.08
2023-01-14T01:01:08.560Z,856.02
2023-01-14T01:02:08.598Z,855.97
2023-01-14T01:03:08.514Z,855.97
2023-01-14T01:04:08.474Z,856.00
2023-01-14T01:05:08.472Z,855.96
2023-01-14T01:06:08.501Z,855.97
2023-01-14T01:07:08.448Z,855.97
2023-01-14T01:08:08.430Z,856.01
2023-01-14T01:09:08.537Z,856.01
2023-01-14T01:10:08.411Z,856.04
2023-01-14T01:11:08.409Z,856.09
2023-01-14T01:12:08.431Z,856.08
2023-01-14T01:13:08.383Z,856.11
2023-01-14T01:14:08.368Z,856.16
2023-01-14T01:15:08.382Z,856.09
2023-01-14T01:16:08.434Z,856.16
2023-01-14T01:17:08.339Z,856.18
2023-01-14T01:18:08.370Z,856.17
2023-01-14T01:19:08.347Z,856.16
2023-01-14T01:20:08.305Z,856.21
2023-01-14T01:21:08.309Z,856.18
2023-01-14T01:22:08.296Z,856.18
2023-01-14T01:23:08.274Z,856.21
2023-01-14T01:24:08.296Z,856.25
2023-01-14T01:25:08.253Z,856.28
2023-01-14T01:26:08.243Z,856.30
2023-01-14T01:27:08.264Z,856.30
2023-01-14T01:28:08.227Z,856.32
2023-01-14T01:29:08.226Z,856.24
2023-01-14T01:30:08.260Z,856.24
2023-01-14T01:31:08.276Z,856.28
2023-01-14T01:32:08.177Z,856.28
2023-01-14T01:33:08.188Z,856.27
2023-01-14T01:34:08.176Z,856.24
2023-01-14T01:35:08.166Z,856.22
2023-01-14T01:36:08.204Z,856.23
2023-01-14T01:37:08.131Z,856.26
2023-01-14T01:38:08.114Z,856.24
2023-01-14T01:39:08.110Z,856.32
2023-01-14T01:40:08.096Z,856.31
2023-01-14T01:41:08.109Z,856.34
2023-01-14T01:42:08.156Z,856.37
2023-01-14T01:43:08.082Z,856.35
2023-01-14T01:44:08.083Z,856.35
2023-01-14T01:45:08.055Z,856.27
2023-01-14T01:46:08.032Z,856.28
2023-01-14T01:47:08.021Z,856.28
2023-01-14T01:48:08.069Z,856.27
2023-01-14T01:49:08.030Z,856.29
2023-01-14T01:50:08.022Z,856.26
2023-01-14T01:51:08.008Z,856.23
2023-01-14T01:52:07.996Z,856.29
2023-01-14T01:53:07.974Z,856.34
2023-01-14T01:54:08.003Z,856.32
2023-01-14T01:55:07.943Z,856.31
2023-01-14T01:56:07.928Z,856.32
2023-01-14T01:57:07.934Z,856.29
2023-01-14T01:58:07.917Z,856.30
2023-01-14T01:59:07.915Z,856.28
2023-01-14T02:00:07.924Z,856.33
2023-01-14T02:01:08.004Z,856.32
2023-01-14T02:02:08.001Z,856.33
2023-01-14T02:03:07.867Z,856.36
2023-01-14T02:04:07.842Z,856.39
2023-01-14T02:05:07.836Z,856.42
2023-01-14T02:06:07.898Z,856.42
2023-01-14T02:07:07.814Z,856.45
2023-01-14T02:08:07.821Z,856.43
2023-01-14T02:09:07.814Z,856.43
2023-01-14T02:10:07.806Z,856.44
2023-01-14T02:11:07.774Z,856.45
2023-01-14T02:12:07.812Z,856.49
2023-01-14T02:13:07.772Z,856.44
2023-01-14T02:14:07.751Z,856.38
2023-01-14T02:15:07.731Z,856.39
2023-01-14T02:16:07.784Z,856.38
2023-01-14T02:17:07.710Z,856.40
2023-01-14T02:18:07.751Z,856.41
2023-01-14T02:19:07.703Z,856.40
2023-01-14T02:20:07.679Z,856.39
2023-01-14T02:21:07.672Z,856.36
2023-01-14T02:22:07.705Z,856.42
2023-01-14T02:23:07.690Z,856.40
2023-01-14T02:24:07.689Z,856.42
2023-01-14T02:25:07.627Z,856.41
2023-01-14T02:26:07.611Z,856.45
2023-01-14T02:27:07.606Z,856.49
2023-01-14T02:28:07.589Z,856.45
2023-01-14T02:29:07.606Z,856.47
2023-01-14T02:30:07.628Z,856.54
2023-01-14T02:31:07.567Z,856.46
2023-01-14T02:32:07.548Z,856.47
2023-01-14T02:33:07.546Z,856.44
2023-01-14T02:34:07.527Z,856.49
2023-01-14T02:35:07.537Z,856.48
2023-01-14T02:36:07.540Z,856.49
2023-01-14T02:37:07.505Z,856.45
2023-01-14T02:38:07.518Z,856.47
2023-01-14T02:39:07.476Z,856.49
2023-01-14T02:40:07.462Z,856.46
2023-01-14T02:41:07.461Z,856.44
2023-01-14T02:42:07.495Z,856.45
2023-01-14T02:43:07.450Z,856.43
2023-01-14T02:44:07.440Z,856.40
2023-01-14T02:45:07.423Z,856.40
2023-01-14T02:46:07.459Z,856.44
2023-01-14T02:47:07.404Z,856.39
2023-01-14T02:48:07.425Z,856.40
2023-01-14T02:49:07.416Z,856.39
2023-01-14T02:50:07.373Z,856.46
2023-01-14T02:51:07.349Z,856.43
2023-01-14T02:52:07.361Z,856.45
2023-01-14T02:53:07.330Z,856.42
2023-01-14T02:54:07.353Z,856.45
2023-01-14T02:55:07.329Z,856.43
2023-01-14T02:56:07.293Z,856.47
2023-01-14T02:57:07.295Z,856.45
2023-01-14T02:58:07.273Z,856.45
2023-01-14T02:59:07.267Z,856.48
2023-01-14T03:00:07.295Z,856.52
2023-01-14T03:01:07.489Z,856.52
2023-01-14T03:02:07.510Z,856.58
2023-01-14T03:03:07.219Z,856.58
2023-01-14T03:04:07.207Z,856.56
2023-01-14T03:05:07.205Z,856.55
2023-01-14T03:06:07.221Z,856.62
2023-01-14T03:07:07.194Z,856.58
2023-01-14T03:08:07.272Z,856.55
2023-01-14T03:09:07.158Z,856.52
2023-01-14T03:10:07.163Z,856.55
2023-01-14T03:11:07.136Z,856.54
2023-01-14T03:12:07.164Z,856.55
2023-01-14T03:13:07.113Z,856.54
2023-01-14T03:14:07.118Z,856.57
2023-01-14T03:15:07.093Z,856.63
2023-01-14T03:16:07.206Z,856.63
2023-01-14T03:17:07.073Z,856.61
2023-01-14T03:18:07.114Z,856.59
2023-01-14T03:19:07.058Z,856.64
2023-01-14T03:20:07.041Z,856.62
2023-01-14T03:21:07.032Z,856.66
2023-01-14T03:22:07.077Z,856.62
2023-01-14T03:23:07.013Z,856.61
2023-01-14T03:24:07.041Z,856.62
2023-01-14T03:25:06.995Z,856.56
2023-01-14T03:26:06.990Z,856.57
2023-01-14T03:27:06.970Z,856.57
2023-01-14T03:28:06.969Z,856.54
2023-01-14T03:29:06.953Z,856.55
2023-01-14T03:30:07.022Z,856.58
2023-01-14T03:31:06.924Z,856.58
2023-01-14T03:32:06.920Z,856.54
2023-01-14T03:33:06.909Z,856.57
2023-01-14T03:34:06.900Z,856.51
2023-01-14T03:35:06.887Z,856.52
2023-01-14T03:36:06.929Z,856.54
2023-01-14T03:37:06.864Z,856.58
2023-01-14T03:38:06.847Z,856.54
2023-01-14T03:39:06.835Z,856.54
2023-01-14T03:40:06.825Z,856.47
2023-01-14T03:41:06.833Z,856.47
2023-01-14T03:42:06.864Z,856.51
2023-01-14T03:43:06.795Z,856.46
2023-01-14T03:44:06.782Z,856.44
2023-01-14T03:45:06.786Z,856.48
2023-01-14T03:46:06.827Z,856.40
2023-01-14T03:47:06.786Z,856.46
2023-01-14T03:48:06.808Z,856.39
2023-01-14T03:49:06.767Z,856.36
2023-01-14T03:50:06.724Z,856.37
2023-01-14T03:51:06.710Z,856.38
2023-01-14T03:52:06.697Z,856.35
2023-01-14T03:53:06.712Z,856.33
2023-01-14T03:54:06.706Z,856.34
2023-01-14T03:55:06.673Z,856.35
2023-01-14T03:56:06.660Z,856.31
2023-01-14T03:57:06.651Z,856.31
2023-01-14T03:58:06.658Z,856.32
2023-01-14T03:59:06.645Z,856.30
2023-01-14T04:00:06.660Z,856.31
2023-01-14T04:01:06.732Z,856.38
2023-01-14T04:02:06.746Z,856.36
2023-01-14T04:03:14.131Z,856.38
2023-01-14T04:04:14.138Z,856.38
2023-01-14T04:05:14.499Z,856.35
2023-01-14T04:06:14.084Z,856.39
2023-01-14T04:07:14.065Z,856.36
2023-01-14T04:08:14.050Z,856.38
2023-01-14T04:09:14.041Z,856.44
2023-01-14T04:10:06.523Z,856.49
2023-01-14T04:11:06.500Z,856.50
2023-01-14T04:12:06.502Z,856.53
2023-01-14T04:13:06.478Z,856.61
2023-01-14T04:14:06.502Z,856.54
2023-01-14T04:15:06.477Z,856.49
2023-01-14T04:16:06.445Z,856.50
2023-01-14T04:17:06.448Z,856.53
2023-01-14T04:18:06.430Z,856.51
2023-01-14T04:19:06.413Z,856.52
2023-01-14T04:20:06.411Z,856.47
2023-01-14T04:21:06.408Z,856.49
2023-01-14T04:22:06.394Z,856.47
2023-01-14T04:23:06.376Z,856.52
2023-01-14T04:24:06.363Z,856.50
2023-01-14T04:25:06.352Z,856.51
2023-01-14T04:26:06.340Z,856.49
2023-01-14T04:27:06.348Z,856.53
2023-01-14T04:28:06.329Z,856.49
2023-01-14T04:29:06.326Z,856.54
2023-01-14T04:30:06.321Z,856.50
2023-01-14T04:31:06.372Z,856.50
2023-01-14T04:32:06.276Z,856.48
2023-01-14T04:33:06.277Z,856.54
2023-01-14T04:34:06.258Z,856.52
2023-01-14T04:35:06.248Z,856.49
2023-01-14T04:36:06.241Z,856.54
2023-01-14T04:37:06.247Z,856.53
2023-01-14T04:38:06.219Z,856.55
2023-01-14T04:39:06.204Z,856.55
2023-01-14T04:40:06.201Z,856.52
2023-01-14T04:41:06.193Z,856.56
2023-01-14T04:42:06.168Z,856.60
2023-01-14T04:43:06.190Z,856.55
2023-01-14T04:44:06.148Z,856.61
2023-01-14T04:45:06.138Z,856.63
2023-01-14T04:46:06.183Z,856.65
2023-01-14T04:47:06.121Z,856.64
2023-01-14T04:48:06.116Z,856.65
2023-01-14T04:49:06.108Z,856.66
2023-01-14T04:50:06.082Z,856.68
2023-01-14T04:51:06.079Z,856.70
2023-01-14T04:52:06.062Z,856.70
2023-01-14T04:53:06.068Z,856.70
2023-01-14T04:54:06.041Z,856.68
2023-01-14T04:55:06.052Z,856.70
2023-01-14T04:56:06.020Z,856.72
2023-01-14T04:57:06.010Z,856.74
2023-01-14T04:58:06.002Z,856.72
2023-01-14T04:59:06.004Z,856.67
2023-01-14T05:00:05.980Z,856.73
2023-01-14T05:01:06.098Z,856.73
2023-01-14T05:02:06.123Z,856.74
2023-01-14T05:03:05.948Z,856.77
2023-01-14T05:04:05.979Z,856.72
2023-01-14T05:05:05.927Z,856.73
2023-01-14T05:06:05.934Z,856.70
2023-01-14T05:07:05.921Z,856.69
2023-01-14T05:08:05.896Z,856.66
2023-01-14T05:09:05.887Z,856.69
2023-01-14T05:10:05.894Z,856.64
2023-01-14T05:11:05.863Z,856.66
2023-01-14T05:12:05.857Z,856.66
2023-01-14T05:13:05.854Z,856.59
2023-01-14T05:14:05.848Z,856.61
2023-01-14T05:15:05.829Z,856.59
2023-01-14T05:16:05.864Z,856.59
2023-01-14T05:17:05.815Z,856.54
2023-01-14T05:18:05.818Z,856.58
2023-01-14T05:19:05.783Z,856.59
2023-01-14T05:20:05.785Z,856.61
2023-01-14T05:21:05.754Z,856.57
2023-01-14T05:22:05.760Z,856.56
2023-01-14T05:23:05.736Z,856.55
2023-01-14T05:24:05.730Z,856.55
2023-01-14T05:25:05.740Z,856.52
2023-01-14T05:26:05.705Z,856.56
2023-01-14T05:27:05.706Z,856.50
2023-01-14T05:28:05.896Z,856.47
2023-01-14T05:29:05.677Z,856.47
2023-01-14T05:30:05.665Z,856.49
2023-01-14T05:31:05.679Z,856.48
2023-01-14T05:32:05.647Z,856.52
2023-01-14T05:33:05.647Z,856.53
2023-01-14T05:34:05.677Z,856.59
2023-01-14T05:35:05.608Z,856.53
2023-01-14T05:36:05.604Z,856.57
2023-01-14T05:37:05.592Z,856.54
2023-01-14T05:38:05.601Z,856.58
2023-01-14T05:39:05.581Z,856.57
2023-01-14T05:40:05.561Z,856.54
2023-01-14T05:41:05.589Z,856.60
2023-01-14T05:42:05.545Z,856.62
2023-01-14T05:43:05.524Z,856.57
2023-01-14T05:44:05.526Z,856.66
2023-01-14T05:45:05.519Z,856.72
2023-01-14T05:46:05.552Z,856.70
2023-01-14T05:47:05.489Z,856.69
2023-01-14T05:48:05.484Z,856.67
2023-01-14T05:49:05.460Z,856.70
2023-01-14T05:50:05.494Z,856.66
2023-01-14T05:51:05.442Z,856.63
2023-01-14T05:52:05.434Z,856.68
2023-01-14T05:53:05.422Z,856.56
2023-01-14T05:54:05.421Z,856.69
2023-01-14T05:55:05.400Z,856.62
2023-01-14T05:56:05.401Z,856.63
2023-01-14T05:57:05.377Z,856.63
2023-01-14T05:58:05.378Z,856.62
2023-01-14T05:59:05.355Z,856.63
2023-01-14T06:00:05.359Z,856.66
2023-01-14T06:01:05.424Z,856.61
2023-01-14T06:02:05.326Z,856.56
2023-01-14T06:03:05.312Z,856.52
2023-01-14T06:04:05.359Z,856.48
2023-01-14T06:05:05.290Z,856.47
2023-01-14T06:06:05.326Z,856.45
2023-01-14T06:07:05.272Z,856.49
2023-01-14T06:08:05.282Z,856.45
2023-01-14T06:09:05.250Z,856.44
2023-01-14T06:10:05.248Z,856.51
2023-01-14T06:11:05.230Z,856.53
2023-01-14T06:12:05.247Z,856.55
2023-01-14T06:13:05.208Z,856.62
2023-01-14T06:14:05.204Z,856.63
2023-01-14T06:15:05.217Z,856.55
2023-01-14T06:16:05.259Z,856.57
2023-01-14T06:17:05.187Z,856.56
2023-01-14T06:18:05.183Z,856.58
2023-01-14T06:19:05.157Z,856.58
2023-01-14T06:20:05.142Z,856.57
2023-01-14T06:21:05.133Z,856.60
2023-01-14T06:22:05.190Z,856.58
2023-01-14T06:23:05.114Z,856.51
2023-01-14T06:24:05.129Z,856.56
2023-01-14T06:25:05.158Z,856.52
2023-01-14T06:26:05.081Z,856.56
2023-01-14T06:27:05.073Z,856.49
2023-01-14T06:28:05.058Z,856.54
2023-01-14T06:29:05.040Z,856.42
2023-01-14T06:30:05.053Z,856.48
2023-01-14T06:31:05.076Z,856.48
2023-01-14T06:32:05.016Z,856.47
2023-01-14T06:33:05.013Z,856.47
2023-01-14T06:34:04.995Z,856.47
2023-01-14T06:35:04.977Z,856.43
2023-01-14T06:36:04.980Z,856.41
2023-01-14T06:37:04.956Z,856.40
2023-01-14T06:38:04.966Z,856.41
2023-01-14T06:39:04.951Z,856.42
2023-01-14T06:40:04.930Z,856.35
2023-01-14T06:41:04.916Z,856.35
2023-01-14T06:42:04.929Z,856.27
2023-01-14T06:43:04.895Z,856.34
2023-01-14T06:44:04.886Z,856.21
2023-01-14T06:45:04.872Z,856.25
2023-01-14T06:46:04.873Z,856.20
2023-01-14T06:47:04.860Z,856.22
2023-01-14T06:48:04.867Z,856.15
2023-01-14T06:49:04.833Z,856.19
2023-01-14T06:50:04.832Z,856.17
2023-01-14T06:51:04.811Z,856.21
2023-01-14T06:52:04.803Z,856.16
2023-01-14T06:53:04.784Z,856.14
2023-01-14T06:54:04.817Z,856.16
2023-01-14T06:55:04.770Z,856.16
2023-01-14T06:56:04.771Z,856.16
2023-01-14T06:57:04.743Z,856.18
2023-01-14T06:58:04.740Z,856.15
2023-01-14T06:59:04.734Z,856.17
2023-01-14T07:00:04.729Z,856.16
2023-01-14T07:01:04.860Z,856.20
2023-01-14T07:02:04.912Z,856.21
2023-01-14T07:03:04.680Z,856.21
2023-01-14T07:04:04.673Z,856.18
2023-01-14T07:05:07.711Z,856.14
2023-01-14T07:06:04.653Z,856.17
2023-01-14T07:07:04.649Z,856.10
2023-01-14T07:08:04.635Z,856.12
2023-01-14T07:09:04.626Z,856.05
2023-01-14T07:10:04.653Z,856.10
2023-01-14T07:11:04.605Z,856.07
2023-01-14T07:12:04.589Z,856.07
2023-01-14T07:13:04.582Z,856.04
2023-01-14T07:14:04.585Z,856.07
2023-01-14T07:15:04.559Z,856.04
2023-01-14T07:16:04.610Z,856.03
2023-01-14T07:17:04.547Z,856.02
2023-01-14T07:18:04.526Z,856.02
2023-01-14T07:19:04.515Z,856.02
2023-01-14T07:20:04.513Z,856.02
2023-01-14T07:21:04.491Z,856.00
2023-01-14T07:22:04.484Z,856.01
2023-01-14T07:23:04.482Z,856.03
2023-01-14T07:24:04.485Z,856.03
2023-01-14T07:25:04.451Z,856.02
2023-01-14T07:26:04.632Z,855.99
2023-01-14T07:27:04.440Z,856.02
2023-01-14T07:28:04.420Z,856.04
2023-01-14T07:29:04.418Z,856.04
2023-01-14T07:30:04.400Z,856.06
2023-01-14T07:31:04.450Z,856.04
2023-01-14T07:32:04.379Z,856.02
2023-01-14T07:33:04.392Z,856.03
2023-01-14T07:34:04.372Z,856.02
2023-01-14T07:35:04.345Z,856.01
2023-01-14T07:36:04.336Z,856.06
2023-01-14T07:37:04.322Z,856.04
2023-01-14T07:38:04.321Z,856.02
2023-01-14T07:39:04.323Z,856.02
2023-01-14T07:40:04.299Z,856.00
2023-01-14T07:41:04.281Z,855.98
2023-01-14T07:42:04.297Z,855.99
2023-01-14T07:43:04.259Z,855.95
2023-01-14T07:44:04.268Z,855.98
2023-01-14T07:45:04.260Z,855.98
2023-01-14T07:46:04.298Z,856.01
2023-01-14T07:47:04.219Z,855.96
2023-01-14T07:48:04.211Z,856.02
2023-01-14T07:49:04.210Z,855.94
2023-01-14T07:50:04.188Z,855.94
2023-01-14T07:51:04.180Z,855.98
2023-01-14T07:52:04.178Z,855.97
2023-01-14T07:53:04.152Z,856.01
2023-01-14T07:54:04.162Z,855.98
2023-01-14T07:55:04.136Z,855.96
2023-01-14T07:56:04.128Z,855.96
2023-01-14T07:57:04.120Z,855.94
2023-01-14T07:58:04.144Z,855.91
2023-01-14T07:59:04.103Z,855.86
2023-01-14T08:00:04.085Z,855.91
2023-01-14T08:01:04.197Z,855.88
2023-01-14T08:02:04.182Z,855.87
2023-01-14T08:03:04.061Z,855.91
2023-01-14T08:04:04.138Z,855.88
2023-01-14T08:05:04.041Z,855.90
2023-01-14T08:06:04.028Z,855.88
2023-01-14T08:07:04.685Z,855.86
2023-01-14T08:08:04.010Z,855.87
2023-01-14T08:09:04.023Z,855.86
2023-01-14T08:10:04.008Z,855.84
2023-01-14T08:11:03.967Z,855.83
2023-01-14T08:12:03.958Z,855.80
2023-01-14T08:13:03.943Z,855.82
2023-01-14T08:14:03.957Z,855.78
2023-01-14T08:15:03.965Z,855.81
2023-01-14T08:16:04.159Z,855.81
2023-01-14T08:17:03.903Z,855.85
2023-01-14T08:18:06.509Z,855.83
2023-01-14T08:19:03.981Z,855.85
2023-01-14T08:20:03.872Z,855.82
2023-01-14T08:21:03.859Z,855.83
2023-01-14T08:22:03.868Z,855.82
2023-01-14T08:23:03.843Z,855.77
2023-01-14T08:24:03.831Z,855.82
2023-01-14T08:25:06.047Z,855.79
2023-01-14T08:26:03.836Z,855.78
2023-01-14T08:27:03.793Z,855.78
2023-01-14T08:28:03.795Z,855.87
2023-01-14T08:29:12.223Z,855.81
2023-01-14T08:30:04.793Z,855.80
2023-01-14T08:31:03.750Z,855.83
2023-01-14T08:32:03.758Z,855.81
2023-01-14T08:33:03.733Z,855.77
2023-01-14T08:34:03.733Z,855.78
2023-01-14T08:35:03.712Z,855.82
2023-01-14T08:36:03.701Z,855.79
2023-01-14T08:37:03.686Z,855.83
2023-01-14T08:38:03.700Z,855.81
2023-01-14T08:39:03.665Z,855.89
2023-01-14T08:40:03.664Z,855.90
2023-01-14T08:41:03.645Z,855.90
2023-01-14T08:42:03.698Z,855.91
2023-01-14T08:43:03.625Z,855.90
2023-01-14T08:44:03.628Z,855.91
2023-01-14T08:45:03.642Z,855.88
2023-01-14T08:46:03.683Z,855.88
2023-01-14T08:47:03.582Z,855.89
2023-01-14T08:48:03.574Z,855.87
2023-01-14T08:49:03.571Z,855.91
2023-01-14T08:50:03.608Z,855.91
2023-01-14T08:51:03.541Z,855.93
2023-01-14T08:52:03.562Z,855.96
2023-01-14T08:53:03.537Z,855.95
2023-01-14T08:54:03.534Z,856.01
2023-01-14T08:55:03.495Z,855.95
2023-01-14T08:56:03.525Z,855.91
2023-01-14T08:57:03.479Z,855.90
2023-01-14T08:58:03.472Z,855.92
2023-01-14T08:59:03.469Z,855.95
2023-01-14T09:00:03.443Z,855.88
2023-01-14T09:01:03.536Z,855.88
2023-01-14T09:02:03.640Z,855.89
2023-01-14T09:03:03.425Z,855.94
2023-01-14T09:04:03.444Z,855.95
2023-01-14T09:05:03.388Z,855.91
2023-01-14T09:06:03.396Z,855.95
2023-01-14T09:07:03.424Z,855.94
2023-01-14T09:08:03.371Z,855.89
2023-01-14T09:09:03.374Z,855.91
2023-01-14T09:10:03.356Z,855.91
2023-01-14T09:11:03.334Z,855.91
2023-01-14T09:12:03.383Z,855.90
2023-01-14T09:13:03.315Z,855.89
2023-01-14T09:14:03.293Z,855.89
2023-01-14T09:15:03.298Z,855.88
2023-01-14T09:16:03.275Z,855.81
2023-01-14T09:17:03.372Z,855.84
2023-01-14T09:18:03.317Z,855.82
2023-01-14T09:19:03.243Z,855.84
2023-01-14T09:20:03.243Z,855.81
2023-01-14T09:21:03.239Z,855.71
2023-01-14T09:22:03.208Z,855.70
2023-01-14T09:23:03.208Z,855.69
2023-01-14T09:24:03.198Z,855.70
2023-01-14T09:25:03.199Z,855.72
2023-01-14T09:26:03.165Z,855.72
2023-01-14T09:27:03.160Z,855.72
2023-01-14T09:28:03.150Z,855.72
2023-01-14T09:29:03.148Z,855.66
2023-01-14T09:30:03.132Z,855.69
2023-01-14T09:31:03.153Z,855.66
2023-01-14T09:32:03.107Z,855.61
2023-01-14T09:33:03.097Z,855.61
2023-01-14T09:34:03.105Z,855.64
2023-01-14T09:35:03.083Z,855.64
2023-01-14T09:36:03.198Z,855.62
2023-01-14T09:37:03.053Z,855.63
2023-01-14T09:38:03.038Z,855.59
2023-01-14T09:39:03.031Z,855.61
2023-01-14T09:40:03.019Z,855.58
2023-01-14T09:41:10.633Z,855.57
2023-01-14T09:42:04.061Z,855.57
2023-01-14T09:43:03.007Z,855.50
2023-01-14T09:44:02.969Z,855.50
2023-01-14T09:45:02.965Z,855.51
2023-01-14T09:46:02.981Z,855.48
2023-01-14T09:47:02.954Z,855.55
2023-01-14T09:48:02.953Z,855.49
2023-01-14T09:49:02.943Z,855.42
2023-01-14T09:50:02.982Z,855.39
2023-01-14T09:51:02.995Z,855.36
2023-01-14T09:52:02.900Z,855.37
2023-01-14T09:53:02.887Z,855.37
2023-01-14T09:54:02.905Z,855.33
2023-01-14T09:55:02.893Z,855.29
2023-01-14T09:56:02.865Z,855.23
2023-01-14T09:57:02.838Z,855.24
2023-01-14T09:58:02.825Z,855.26
2023-01-14T09:59:02.846Z,855.23
2023-01-14T10:00:02.813Z,855.22
2023-01-14T10:01:02.821Z,855.19
2023-01-14T10:02:02.833Z,855.22
2023-01-14T10:03:02.770Z,855.16
2023-01-14T10:04:02.803Z,855.15
2023-01-14T10:05:02.792Z,855.11
2023-01-14T10:06:02.798Z,855.04
2023-01-14T10:07:02.745Z,855.02
2023-01-14T10:08:02.716Z,855.08
2023-01-14T10:09:02.708Z,855.04
2023-01-14T10:10:02.704Z,855.04
2023-01-14T10:11:02.741Z,855.08
2023-01-14T10:12:02.707Z,855.06
2023-01-14T10:13:02.672Z,855.05
2023-01-14T10:14:02.661Z,855.06
2023-01-14T10:15:02.654Z,855.03
2023-01-14T10:16:02.685Z,855.00
2023-01-14T10:17:02.649Z,855.08
2023-01-14T10:18:02.610Z,855.05
2023-01-14T10:19:02.603Z,855.06
2023-01-14T10:20:02.591Z,855.09
2023-01-14T10:21:02.581Z,855.11
2023-01-14T10:22:02.697Z,855.09
2023-01-14T10:23:02.596Z,855.05
2023-01-14T10:24:02.546Z,855.08
2023-01-14T10:25:02.540Z,855.04
2023-01-14T10:26:02.522Z,855.05
2023-01-14T10:27:02.519Z,855.04
2023-01-14T10:28:02.516Z,855.01
2023-01-14T10:29:02.522Z,855.00
2023-01-14T10:30:02.480Z,854.98
2023-01-14T10:31:10.065Z,854.97
2023-01-14T10:32:09.981Z,854.97
2023-01-14T10:33:10.073Z,854.99
2023-01-14T10:34:09.957Z,854.99
2023-01-14T10:35:09.953Z,854.93
2023-01-14T10:36:09.933Z,854.94
2023-01-14T10:37:09.965Z,854.92
2023-01-14T10:38:09.922Z,854.86
2023-01-14T10:39:09.918Z,854.86
2023-01-14T10:40:09.897Z,854.85
2023-01-14T10:41:11.798Z,854.83
2023-01-14T10:42:03.360Z,854.82
2023-01-14T10:43:02.346Z,854.78
2023-01-14T10:44:02.341Z,854.75
2023-01-14T10:45:02.336Z,854.77
2023-01-14T10:46:02.423Z,854.70
2023-01-14T10:47:02.351Z,854.62
2023-01-14T10:48:02.299Z,854.53
2023-01-14T10:49:02.298Z,854.47
2023-01-14T10:50:02.318Z,854.41
2023-01-14T10:51:02.258Z,854.45
2023-01-14T10:52:02.248Z,854.36
2023-01-14T10:53:02.267Z,854.39
2023-01-14T10:54:02.223Z,854.34
2023-01-14T10:55:02.260Z,854.29
2023-01-14T10:56:02.217Z,854.28
2023-01-14T10:57:02.190Z,854.27
2023-01-14T10:58:02.192Z,854.27
2023-01-14T10:59:02.189Z,854.22
2023-01-14T11:00:02.164Z,854.20
2023-01-14T11:01:02.303Z,854.23
2023-01-14T11:02:19.828Z,854.19
2023-01-14T11:03:03.148Z,854.16
2023-01-14T11:04:02.151Z,854.17
2023-01-14T11:05:02.126Z,854.12
2023-01-14T11:06:02.102Z,854.11
2023-01-14T11:07:02.127Z,854.11
2023-01-14T11:08:02.072Z,854.10
2023-01-14T11:09:02.099Z,854.09
2023-01-14T11:10:02.048Z,854.11
2023-01-14T11:11:02.041Z,854.14
2023-01-14T11:12:02.052Z,854.10
2023-01-14T11:13:02.057Z,854.13
2023-01-14T11:14:02.019Z,854.04
2023-01-14T11:15:02.002Z,854.01
2023-01-14T11:16:02.114Z,853.95
2023-01-14T11:17:01.979Z,853.94
2023-01-14T11:18:01.964Z,853.91
2023-01-14T11:19:01.981Z,853.89
2023-01-14T11:20:01.954Z,853.84
2023-01-14T11:21:01.953Z,853.87
2023-01-14T11:22:01.946Z,853.82
2023-01-14T11:23:01.917Z,853.86
2023-01-14T11:24:01.909Z,853.82
2023-01-14T11:25:01.939Z,853.77
2023-01-14T11:26:01.890Z,853.77
2023-01-14T11:27:01.878Z,853.70
2023-01-14T11:28:01.861Z,853.69
2023-01-14T11:29:01.855Z,853.63
2023-01-14T11:30:01.843Z,853.61
2023-01-14T11:31:01.897Z,853.58
2023-01-14T11:32:01.824Z,853.59
2023-01-14T11:33:01.827Z,853.57
2023-01-14T11:34:01.801Z,853.62
2023-01-14T11:35:01.796Z,853.63
2023-01-14T11:36:01.776Z,853.65
2023-01-14T11:37:01.809Z,853.68
2023-01-14T11:38:01.753Z,853.68
2023-01-14T11:39:01.741Z,853.71
2023-01-14T11:40:01.728Z,853.74
2023-01-14T11:41:01.745Z,853.72
2023-01-14T11:42:01.721Z,853.72
2023-01-14T11:43:01.731Z,853.69
2023-01-14T11:44:01.691Z,853.71
2023-01-14T11:45:01.678Z,853.66
2023-01-14T11:46:01.748Z,853.64
2023-01-14T11:47:01.661Z,853.63
2023-01-14T11:48:01.664Z,853.64
2023-01-14T11:49:01.669Z,853.64
2023-01-14T11:50:01.652Z,853.62
2023-01-14T11:51:01.686Z,853.56
2023-01-14T11:52:01.631Z,853.50
2023-01-14T11:53:01.616Z,853.50
2023-01-14T11:54:01.592Z,853.48
2023-01-14T11:55:01.603Z,853.43
2023-01-14T11:56:01.595Z,853.45
2023-01-14T11:57:01.572Z,853.42
2023-01-14T11:58:13.233Z,853.43
2023-01-14T11:59:02.535Z,853.45
2023-01-14T12:00:01.515Z,853.42
2023-01-14T12:01:01.635Z,853.41
2023-01-14T12:02:01.509Z,853.40
2023-01-14T12:03:01.564Z,853.35
2023-01-14T12:04:01.518Z,853.31
2023-01-14T12:05:01.466Z,853.30
2023-01-14T12:06:01.451Z,853.28
2023-01-14T12:07:01.498Z,853.32
2023-01-14T12:08:01.491Z,853.31
2023-01-14T12:09:01.420Z,853.27
2023-01-14T12:10:01.405Z,853.19
2023-01-14T12:11:01.400Z,853.13
2023-01-14T12:12:01.384Z,853.13
2023-01-14T12:13:01.406Z,853.10
2023-01-14T12:14:01.391Z,853.13
2023-01-14T12:15:01.358Z,853.14
2023-01-14T12:16:01.396Z,853.09
2023-01-14T12:17:01.340Z,853.11
2023-01-14T12:18:01.322Z,853.10
2023-01-14T12:19:01.336Z,853.15
2023-01-14T12:20:01.314Z,853.16
2023-01-14T12:21:01.320Z,853.18
2023-01-14T12:22:01.287Z,853.21
2023-01-14T12:23:01.409Z,853.27
2023-01-14T12:24:01.259Z,853.24
2023-01-14T12:25:01.275Z,853.21
2023-01-14T12:26:01.249Z,853.26
2023-01-14T12:27:01.235Z,853.23
2023-01-14T12:28:01.218Z,853.18